Time;durP1;ratioP1;P1;durP2;ratioP2;P2;SDS_P1;SDS_P2;PMS_P1;PMS_P2;Temp;Humidity;BMP_temperature;BMP_pressure;BME280_temperature;BME280_humidity;BME280_pressure;Samples;Min_cycle;Max_cycle;Signal;HPM_P1;HPM_P2
2021/08/13 00:01:38;;;;;;;25.67;12.60;;;;;;;17.16;93.80;101805.78;5074288;28;20111;-66
2021/08/13 00:04:03;;;;;;;23.27;11.30;;;;;;;17.08;91.36;101808.50;5074356;28;20056;-66
2021/08/13 00:06:29;;;;;;;24.38;11.40;;;;;;;17.02;91.78;101808.56;5074371;28;20028;-65
2021/08/13 00:08:54;;;;;;;24.83;12.43;;;;;;;16.98;93.41;101817.50;5074218;28;20028;-66
2021/08/13 00:11:19;;;;;;;23.75;12.00;;;;;;;16.93;92.88;101815.75;5074408;28;20387;-66
2021/08/13 00:13:45;;;;;;;23.98;12.43;;;;;;;16.80;92.62;101817.56;5074564;28;20055;-66
2021/08/13 00:16:10;;;;;;;24.10;12.00;;;;;;;16.78;93.31;101814.03;5074085;28;20383;-66
2021/08/13 00:18:36;;;;;;;28.67;16.02;;;;;;;16.78;99.73;101820.25;5074366;28;20021;-66
2021/08/13 00:21:01;;;;;;;27.38;13.70;;;;;;;16.74;95.71;101822.03;5073873;28;20068;-66
2021/08/13 00:23:27;;;;;;;26.65;14.13;;;;;;;16.75;98.69;101828.28;5074238;28;20036;-66
2021/08/13 00:25:52;;;;;;;26.63;14.13;;;;;;;16.81;98.27;101830.03;5074075;28;20379;-68
2021/08/13 00:28:18;;;;;;;25.85;13.23;;;;;;;16.92;96.42;101836.22;5073839;28;20020;-66
2021/08/13 00:30:43;;;;;;;27.05;12.88;;;;;;;16.97;95.54;101831.72;5074094;28;20108;-68
2021/08/13 00:33:08;;;;;;;24.75;12.75;;;;;;;17.04;95.63;101833.47;5073884;28;20055;-68
2021/08/13 00:35:34;;;;;;;24.67;12.32;;;;;;;17.12;95.01;101821.84;5073827;28;20025;-68
2021/08/13 00:37:59;;;;;;;27.48;14.63;;;;;;;17.22;96.56;101818.19;5073567;28;20024;-67
2021/08/13 00:40:25;;;;;;;26.05;12.65;;;;;;;17.23;94.52;101836.00;5073686;28;20025;-63
2021/08/13 00:42:50;;;;;;;26.35;14.23;;;;;;;17.27;95.86;101827.09;5073479;28;20043;-62
2021/08/13 00:45:16;;;;;;;25.52;13.32;;;;;;;17.29;95.63;101832.41;5073363;28;20028;-61
2021/08/13 00:47:41;;;;;;;26.23;13.77;;;;;;;17.33;95.61;101827.03;5073752;28;20024;-63
2021/08/13 00:50:07;;;;;;;28.27;15.55;;;;;;;17.33;98.08;101828.78;5073109;28;20020;-63
2021/08/13 00:52:33;;;;;;;28.88;15.20;;;;;;;17.31;97.50;101834.16;5072792;28;20097;-62
2021/08/13 00:54:58;;;;;;;28.42;14.90;;;;;;;17.32;98.19;101841.28;5073492;28;20033;-63
2021/08/13 00:57:24;;;;;;;28.13;14.35;;;;;;;17.37;97.19;101849.25;5073125;28;20025;-64
2021/08/13 00:59:50;;;;;;;28.05;14.88;;;;;;;17.39;98.74;101850.13;5073419;28;20029;-61
2021/08/13 01:02:16;;;;;;;27.67;14.40;;;;;;;17.38;99.55;101846.56;5073158;28;20077;-62
2021/08/13 01:04:41;;;;;;;32.13;17.85;;;;;;;17.32;100.00;101857.31;5073381;28;20028;-62
2021/08/13 01:07:07;;;;;;;31.20;18.13;;;;;;;17.36;100.00;101855.50;5073270;28;20025;-63
2021/08/13 01:09:34;;;;;;;30.73;17.38;;;;;;;17.45;100.00;101865.25;5073338;28;20032;-63
2021/08/13 01:12:03;;;;;;;29.88;18.17;;;;;;;17.49;100.00;101858.94;5073138;28;20340;-61
2021/08/13 01:15:03;;;;;;;34.85;21.58;;;;;;;17.51;100.00;101863.38;5073119;28;20028;-64
2021/08/13 01:17:37;;;;;;;33.90;21.52;;;;;;;17.40;100.00;101859.91;5030268;28;20049;-64
2021/08/13 01:20:36;;;;;;;31.80;20.05;;;;;;;17.40;100.00;101855.47;5030850;28;20038;-62
2021/08/13 01:23:20;;;;;;;32.53;20.85;;;;;;;17.41;100.00;101857.22;5026313;28;20191;-64
2021/08/13 01:25:56;;;;;;;35.85;22.08;;;;;;;17.37;100.00;101866.19;5028299;28;20037;-62
2021/08/13 01:28:47;;;;;;;34.65;21.05;;;;;;;17.31;100.00;101873.34;5030698;28;20124;-64
2021/08/13 01:31:20;;;;;;;34.92;21.65;;;;;;;17.17;100.00;101870.75;5027943;28;20029;-61
2021/08/13 01:33:46;;;;;;;;;;;;;;;17.23;100.00;101870.75;5031316;28;20531;-61
2021/08/13 01:36:13;;;;;;;34.45;23.17;;;;;;;17.24;100.00;101873.41;5030782;28;19913;-63
2021/08/13 01:38:40;;;;;;;37.83;24.83;;;;;;;17.30;100.00;101880.50;5030608;28;20120;-62
2021/08/13 01:41:08;;;;;;;37.08;24.75;;;;;;;17.36;100.00;101875.09;5030986;28;20029;-64
2021/08/13 01:43:36;;;;;;;34.83;21.80;;;;;;;17.35;100.00;101873.31;5022352;28;20044;-63
2021/08/13 01:46:04;;;;;;;37.55;24.27;;;;;;;17.37;100.00;101871.53;5030427;28;20038;-63
2021/08/13 01:48:30;;;;;;;41.60;27.48;;;;;;;17.42;100.00;101868.81;5030475;28;20515;-62
2021/08/13 01:50:57;;;;;;;44.63;27.90;;;;;;;17.41;100.00;101867.03;5030627;28;20594;-61
2021/08/13 01:53:23;;;;;;;43.53;28.85;;;;;;;17.35;100.00;101861.75;5031411;28;20397;-62
2021/08/13 01:55:51;;;;;;;40.03;25.50;;;;;;;17.34;100.00;101862.63;5070517;28;20024;-66
2021/08/13 01:58:18;;;;;;;38.55;26.60;;;;;;;17.33;100.00;101861.75;5072831;28;20020;-68
2021/08/13 02:00:44;;;;;;;39.38;26.27;;;;;;;17.37;100.00;101859.94;5072358;28;20028;-67
2021/08/13 02:03:10;;;;;;;41.97;27.10;;;;;;;17.35;100.00;101857.28;5075158;28;20025;-66
2021/08/13 02:05:38;;;;;;;40.67;26.63;;;;;;;17.32;100.00;101862.66;5076722;28;20029;-67
2021/08/13 02:08:06;;;;;;;39.15;26.92;;;;;;;17.29;100.00;101859.13;5076540;28;20074;-67
2021/08/13 02:10:36;;;;;;;37.35;24.98;;;;;;;17.29;100.00;101849.31;5076494;28;20032;-67
2021/08/13 02:13:02;;;;;;;39.05;24.90;;;;;;;17.18;100.00;101856.53;5076719;28;20024;-67
2021/08/13 02:15:28;;;;;;;39.13;24.83;;;;;;;17.10;100.00;101859.25;5076609;28;20074;-65
2021/08/13 02:18:03;;;;;;;39.53;26.38;;;;;;;17.06;100.00;101850.34;5076599;28;20431;-65
2021/08/13 02:20:31;;;;;;;35.85;24.42;;;;;;;16.97;100.00;101861.13;5076825;28;20024;-65
2021/08/13 02:22:57;;;;;;;38.30;24.58;;;;;;;16.91;100.00;101863.81;5076237;28;20510;-65
2021/08/13 02:25:22;;;;;;;41.25;25.05;;;;;;;16.85;100.00;101871.84;5076413;28;20039;-66
2021/08/13 02:27:48;;;;;;;37.42;23.58;;;;;;;16.78;100.00;101864.75;5076130;28;20016;-64
2021/08/13 02:30:13;;;;;;;38.33;25.02;;;;;;;16.78;100.00;101864.75;5076155;28;20111;-65
2021/08/13 02:32:39;;;;;;;36.90;23.40;;;;;;;16.80;100.00;101852.28;5075160;28;20039;-65
2021/08/13 02:35:06;;;;;;;38.33;25.35;;;;;;;16.80;100.00;101852.28;5072175;28;20029;-64
2021/08/13 02:37:40;;;;;;;39.80;25.45;;;;;;;16.91;100.00;101855.81;5076051;28;20356;-65
2021/08/13 02:40:09;;;;;;;38.55;24.30;;;;;;;16.92;100.00;101859.34;5072239;28;20146;-65
2021/08/13 02:42:50;;;;;;;40.50;26.05;;;;;;;16.87;100.00;101856.69;5071824;28;20028;-65
2021/08/13 02:45:20;;;;;;;38.10;25.13;;;;;;;16.81;100.00;101846.94;5073245;28;20032;-65
2021/08/13 02:47:47;;;;;;;38.97;25.75;;;;;;;16.78;100.00;101854.97;5075987;28;20719;-66
2021/08/13 02:50:13;;;;;;;37.63;24.90;;;;;;;16.80;100.00;101846.94;5075769;28;20052;-64
2021/08/13 02:52:46;;;;;;;40.47;26.50;;;;;;;16.83;100.00;101847.78;5075661;28;20031;-64
2021/08/13 02:55:19;;;;;;;43.83;29.27;;;;;;;16.82;100.00;101845.13;5072985;28;20025;-65
2021/08/13 02:57:50;;;;;;;40.10;27.33;;;;;;;16.83;100.00;101844.25;5075852;28;20082;-64
2021/08/13 03:00:16;;;;;;;42.10;27.92;;;;;;;16.83;100.00;101838.91;5075626;28;20027;-65
2021/08/13 03:02:42;;;;;;;42.53;28.67;;;;;;;16.79;100.00;101837.16;5075358;28;20430;-64
2021/08/13 03:05:10;;;;;;;39.60;26.63;;;;;;;16.69;100.00;101839.00;5075949;28;20054;-64
2021/08/13 03:07:37;;;;;;;42.35;28.30;;;;;;;16.63;100.00;101831.00;5071241;28;20025;-64
2021/08/13 03:10:03;;;;;;;45.92;31.90;;;;;;;16.50;100.00;101832.88;5075567;28;20379;-64
2021/08/13 03:12:29;;;;;;;51.33;31.65;;;;;;;16.43;100.00;101832.00;5075760;28;20016;-64
2021/08/13 03:14:57;;;;;;;45.88;31.83;;;;;;;16.37;100.00;101827.56;5074079;28;20028;-64
2021/08/13 03:17:23;;;;;;;46.72;31.23;;;;;;;16.35;100.00;101825.78;5075185;28;20024;-64
2021/08/13 03:19:48;;;;;;;48.17;32.35;;;;;;;16.34;100.00;101827.59;5075410;28;20032;-64
2021/08/13 03:22:16;;;;;;;41.00;27.52;;;;;;;16.25;100.00;101824.97;5075006;28;20052;-64
2021/08/13 03:24:42;;;;;;;43.65;28.80;;;;;;;16.25;100.00;101830.31;5075345;28;20423;-64
2021/08/13 03:27:09;;;;;;;47.95;30.38;;;;;;;16.23;100.00;101824.06;5075121;28;20560;-64
2021/08/13 03:29:34;;;;;;;47.05;32.03;;;;;;;16.19;100.00;101825.88;5074986;28;20028;-63
2021/08/13 03:32:00;;;;;;;51.97;32.58;;;;;;;16.16;100.00;101830.31;5075375;28;20031;-64
2021/08/13 03:34:25;;;;;;;50.03;32.00;;;;;;;16.13;100.00;101830.31;5075197;28;20051;-64
2021/08/13 03:36:51;;;;;;;48.30;32.45;;;;;;;16.09;100.00;101826.78;5074871;28;20024;-64
2021/08/13 03:39:16;;;;;;;47.13;30.85;;;;;;;16.09;100.00;101824.13;5074824;28;20028;-62
2021/08/13 03:41:42;;;;;;;47.58;32.13;;;;;;;16.10;100.00;101815.22;5075016;28;20028;-64
2021/08/13 03:44:07;;;;;;;48.60;32.22;;;;;;;16.11;100.00;101821.47;5075033;28;20027;-64
2021/08/13 03:46:33;;;;;;;49.30;32.92;;;;;;;16.05;100.00;101830.34;5074817;28;20025;-64
2021/08/13 03:48:58;;;;;;;47.75;31.73;;;;;;;16.01;100.00;101826.78;5074564;28;20016;-63
2021/08/13 03:51:23;;;;;;;48.17;31.25;;;;;;;16.02;100.00;101830.38;5074484;28;20039;-64
2021/08/13 03:53:49;;;;;;;50.20;32.78;;;;;;;15.94;100.00;101833.03;5074703;28;20056;-63
2021/08/13 03:56:14;;;;;;;50.95;32.90;;;;;;;15.86;100.00;101834.84;5074511;28;20097;-67
2021/08/13 03:58:41;;;;;;;49.88;33.13;;;;;;;15.82;100.00;101828.63;5074687;28;20047;-67
2021/08/13 04:01:07;;;;;;;51.72;33.45;;;;;;;15.82;100.00;101833.06;5070861;28;20035;-68
2021/08/13 04:03:33;;;;;;;49.00;32.92;;;;;;;15.79;100.00;101838.41;5074255;28;20031;-67
2021/08/13 04:05:58;;;;;;;49.90;31.98;;;;;;;15.77;100.00;101832.16;5074311;28;20111;-67
2021/08/13 04:08:23;;;;;;;55.10;33.75;;;;;;;15.73;100.00;101839.28;5074318;28;20480;-67
2021/08/13 04:10:49;;;;;;;52.72;34.58;;;;;;;15.74;100.00;101842.81;5074125;28;20024;-65
2021/08/13 04:13:15;;;;;;;53.47;34.30;;;;;;;15.67;100.00;101858.81;5074418;28;20039;-66
2021/08/13 04:15:40;;;;;;;53.28;34.20;;;;;;;15.62;100.00;101851.72;5073980;28;20070;-66
2021/08/13 04:18:06;;;;;;;55.97;35.22;;;;;;;15.62;100.00;101852.59;5074118;28;20021;-66
2021/08/13 04:20:31;;;;;;;55.08;34.33;;;;;;;15.63;100.00;101850.84;5074280;28;20024;-66
2021/08/13 04:22:57;;;;;;;54.85;34.65;;;;;;;15.73;100.00;101843.69;5073724;28;20045;-66
2021/08/13 04:25:22;;;;;;;54.97;33.25;;;;;;;15.84;100.00;101849.94;5073911;28;20043;-66
2021/08/13 04:27:47;;;;;;;53.30;33.70;;;;;;;15.81;100.00;101841.94;5073880;28;20356;-67
2021/08/13 04:30:13;;;;;;;51.13;32.40;;;;;;;15.80;100.00;101845.50;5073826;28;20103;-66
2021/08/13 04:32:40;;;;;;;50.50;31.67;;;;;;;15.73;100.00;101846.34;5073853;28;20024;-66
2021/08/13 04:35:07;;;;;;;50.83;31.92;;;;;;;15.71;100.00;101840.16;5070026;28;20067;-66
2021/08/13 04:37:33;;;;;;;50.47;32.58;;;;;;;15.68;100.00;101836.63;5073717;28;20057;-64
2021/08/13 04:39:59;;;;;;;51.03;31.90;;;;;;;15.71;100.00;101840.16;5072131;28;20072;-64
2021/08/13 04:42:24;;;;;;;48.70;30.60;;;;;;;15.72;100.00;101839.28;5074071;28;20059;-64
2021/08/13 04:44:49;;;;;;;51.28;31.80;;;;;;;15.74;100.00;101843.72;5073670;28;20436;-64
2021/08/13 04:47:15;;;;;;;46.35;29.48;;;;;;;15.71;100.00;101837.50;5073534;28;20028;-63
2021/08/13 04:49:40;;;;;;;45.67;30.23;;;;;;;15.74;100.00;101842.81;5073656;28;20028;-63
2021/08/13 04:52:06;;;;;;;47.13;28.77;;;;;;;15.70;100.00;101849.94;5073395;28;20033;-63
2021/08/13 04:54:31;;;;;;;44.30;27.90;;;;;;;15.75;100.00;101844.59;5073277;28;20056;-63
2021/08/13 04:56:58;;;;;;;45.40;28.10;;;;;;;15.76;100.00;101849.94;5073510;28;20028;-64
2021/08/13 04:59:23;;;;;;;46.85;26.98;;;;;;;15.79;100.00;101862.41;5073403;28;20091;-64
2021/08/13 05:01:49;;;;;;;46.13;27.02;;;;;;;15.79;100.00;101860.63;5073457;28;20440;-63
2021/08/13 05:04:14;;;;;;;44.22;26.88;;;;;;;15.90;100.00;101865.03;5073172;28;20028;-64
2021/08/13 05:06:39;;;;;;;44.95;26.25;;;;;;;15.90;100.00;101865.94;5073043;28;20046;-64
2021/08/13 05:09:05;;;;;;;43.22;25.92;;;;;;;15.94;100.00;101859.69;5071852;28;20445;-64
2021/08/13 05:11:30;;;;;;;41.22;24.67;;;;;;;15.97;100.00;101870.34;5072871;28;20054;-63
2021/08/13 05:13:55;;;;;;;41.75;25.10;;;;;;;15.95;100.00;101874.81;5072966;28;20532;-64
2021/08/13 05:16:21;;;;;;;44.40;25.73;;;;;;;15.92;100.00;101869.50;5073271;28;20068;-64
2021/08/13 05:18:46;;;;;;;41.85;25.27;;;;;;;15.98;100.00;101881.94;5073150;28;20020;-63
2021/08/13 05:21:11;;;;;;;41.92;25.05;;;;;;;16.05;100.00;101883.69;5072923;28;20115;-63
2021/08/13 05:23:37;;;;;;;39.53;23.60;;;;;;;16.10;100.00;101889.00;5073063;28;20017;-64
2021/08/13 05:26:03;;;;;;;40.08;23.33;;;;;;;16.14;100.00;101883.66;5073016;28;20448;-64
2021/08/13 05:28:28;;;;;;;40.28;23.95;;;;;;;16.18;100.00;101897.91;5072757;28;20028;-62
2021/08/13 05:30:53;;;;;;;38.72;22.88;;;;;;;16.27;100.00;101891.66;5073070;28;20098;-64
2021/08/13 05:33:19;;;;;;;40.10;22.73;;;;;;;16.30;100.00;101896.97;5072996;28;20107;-62
2021/08/13 05:35:44;;;;;;;39.72;23.85;;;;;;;16.34;100.00;101904.97;5075427;28;20467;-60
2021/08/13 05:38:10;;;;;;;39.13;23.08;;;;;;;16.34;100.00;101904.97;5077537;28;20481;-60
2021/08/13 05:40:36;;;;;;;41.03;24.77;;;;;;;16.43;100.00;101903.16;5076709;28;20108;-60
2021/08/13 05:43:02;;;;;;;41.15;24.75;;;;;;;16.45;100.00;101920.94;5073320;28;20487;-62
2021/08/13 05:45:27;;;;;;;41.90;25.05;;;;;;;16.51;100.00;101902.25;5075943;28;20028;-61
2021/08/13 05:47:53;;;;;;;40.67;24.63;;;;;;;16.57;100.00;101903.97;5078195;28;20024;-61
2021/08/13 05:50:18;;;;;;;40.83;23.55;;;;;;;16.67;100.00;101904.84;5077932;28;20483;-60
2021/08/13 05:52:44;;;;;;;40.65;23.50;;;;;;;16.69;100.00;101901.28;5077665;28;20028;-60
2021/08/13 05:55:10;;;;;;;38.53;22.25;;;;;;;16.66;100.00;101908.41;5075087;28;20099;-60
2021/08/13 05:57:36;;;;;;;37.80;21.65;;;;;;;16.65;100.00;101902.19;5075980;28;20105;-62
2021/08/13 06:00:03;;;;;;;35.60;21.15;;;;;;;16.61;100.00;101903.06;5077208;28;20028;-60
2021/08/13 06:02:28;;;;;;;35.65;20.83;;;;;;;16.63;100.00;101908.41;5075813;28;20375;-60
2021/08/13 06:04:57;;;;;;;35.90;20.98;;;;;;;16.65;100.00;101906.63;5077593;28;20028;-61
2021/08/13 06:07:23;;;;;;;34.17;20.70;;;;;;;16.68;100.00;101901.28;5078117;28;20072;-60
2021/08/13 06:09:48;;;;;;;34.35;20.10;;;;;;;16.71;100.00;101899.47;5075889;28;20098;-61
2021/08/13 06:12:13;;;;;;;35.85;19.52;;;;;;;16.69;99.89;101901.28;5076871;28;20040;-60
2021/08/13 06:14:39;;;;;;;35.67;19.27;;;;;;;16.73;99.59;101900.38;5078937;28;20028;-61
2021/08/13 06:17:05;;;;;;;33.88;17.98;;;;;;;16.80;95.85;101916.34;5076444;28;20027;-63
2021/08/13 06:19:31;;;;;;;31.98;18.30;;;;;;;16.74;98.01;101914.59;5076765;28;20111;-62
2021/08/13 06:21:56;;;;;;;32.85;17.75;;;;;;;16.74;98.39;101918.16;5078339;28;20046;-62
2021/08/13 06:24:22;;;;;;;34.22;17.98;;;;;;;16.73;98.78;101916.38;5074917;28;20033;-61
2021/08/13 06:26:47;;;;;;;31.70;17.63;;;;;;;16.75;96.53;101919.06;5076190;28;20029;-61
2021/08/13 06:29:12;;;;;;;34.20;17.77;;;;;;;16.78;97.60;101907.47;5077272;28;20027;-61
2021/08/13 06:31:38;;;;;;;31.73;16.52;;;;;;;16.80;95.92;101924.38;5077956;28;20050;-60
2021/08/13 06:34:03;;;;;;;32.70;17.40;;;;;;;16.89;97.05;101917.25;5075928;28;20079;-60
2021/08/13 06:36:29;;;;;;;32.60;16.50;;;;;;;17.00;94.75;101914.50;5078927;28;20021;-61
2021/08/13 06:38:54;;;;;;;31.77;16.38;;;;;;;17.05;94.74;101925.16;5079135;28;20082;-61
2021/08/13 06:41:20;;;;;;;31.02;16.05;;;;;;;17.08;95.37;101928.72;5078158;28;20021;-60
2021/08/13 06:43:46;;;;;;;32.10;17.20;;;;;;;17.14;96.53;101932.22;5078089;28;20028;-61
2021/08/13 06:46:11;;;;;;;32.65;16.63;;;;;;;17.27;95.78;101925.94;5073012;28;20024;-60
2021/08/13 06:48:36;;;;;;;30.05;15.73;;;;;;;17.28;92.41;101929.50;5078096;28;20032;-60
2021/08/13 06:51:02;;;;;;;29.65;14.85;;;;;;;17.27;90.46;101933.06;5078909;28;20103;-60
2021/08/13 06:53:27;;;;;;;30.40;14.88;;;;;;;17.36;93.58;101939.22;5082197;28;20174;-60
2021/08/13 06:55:52;;;;;;;30.85;14.70;;;;;;;17.50;92.36;101936.44;5078487;28;20107;-60
2021/08/13 06:58:18;;;;;;;29.13;13.70;;;;;;;17.59;88.33;101936.41;5080548;28;20020;-61
2021/08/13 07:00:43;;;;;;;29.20;13.52;;;;;;;17.66;87.65;101939.00;5078972;28;20116;-61
2021/08/13 07:03:09;;;;;;;29.00;14.43;;;;;;;17.56;89.51;101946.22;5082865;28;20055;-62
2021/08/13 07:05:34;;;;;;;31.17;15.20;;;;;;;17.61;91.19;101949.75;5077953;28;20061;-62
2021/08/13 07:08:08;;;;;;;29.95;13.57;;;;;;;17.69;92.36;101955.03;5081146;28;20036;-60
2021/08/13 07:10:34;;;;;;;28.95;13.05;;;;;;;17.77;89.34;101956.75;5077236;28;20027;-60
2021/08/13 07:12:59;;;;;;;27.92;13.50;;;;;;;17.71;88.04;101964.81;5075751;28;20535;-61
2021/08/13 07:15:25;;;;;;;28.45;14.00;;;;;;;17.71;90.64;101971.97;5077679;28;20112;-60
2021/08/13 07:17:50;;;;;;;29.00;14.60;;;;;;;17.80;88.51;101969.22;5079188;28;20032;-60
2021/08/13 07:20:15;;;;;;;30.48;14.45;;;;;;;17.84;89.48;101983.44;5077316;28;20024;-60
2021/08/13 07:22:40;;;;;;;28.05;13.23;;;;;;;17.86;86.68;101985.19;5080284;28;20519;-60
2021/08/13 07:25:07;;;;;;;29.60;12.57;;;;;;;17.88;86.92;101986.09;5077801;28;20040;-59
2021/08/13 07:27:33;;;;;;;28.02;13.63;;;;;;;17.88;87.97;101990.53;5080693;28;20391;-60
2021/08/13 07:29:58;;;;;;;28.30;12.70;;;;;;;17.83;88.21;101990.56;5079858;28;20025;-59
2021/08/13 07:32:24;;;;;;;27.95;12.65;;;;;;;17.83;85.96;101990.56;5076525;28;20371;-60
2021/08/13 07:34:50;;;;;;;27.75;13.40;;;;;;;17.80;88.79;101981.72;5077520;28;20027;-59
2021/08/13 07:37:15;;;;;;;29.52;13.57;;;;;;;17.84;86.06;101978.09;5077119;28;20035;-60
2021/08/13 07:39:41;;;;;;;26.40;12.27;;;;;;;17.82;85.59;101971.88;5079177;28;20056;-60
2021/08/13 07:42:06;;;;;;;26.95;11.75;;;;;;;18.02;83.96;101972.63;5079451;28;20028;-60
2021/08/13 07:44:31;;;;;;;26.90;11.73;;;;;;;18.10;83.91;101976.13;5078881;28;20020;-60
2021/08/13 07:46:56;;;;;;;25.67;11.35;;;;;;;18.25;83.14;101983.13;5077301;28;20116;-60
2021/08/13 07:49:22;;;;;;;28.88;14.90;;;;;;;18.37;80.79;101979.44;5079725;28;20049;-60
2021/08/13 07:51:47;;;;;;;33.88;20.33;;;;;;;18.38;83.07;101988.38;5080416;28;20028;-60
2021/08/13 07:54:12;;;;;;;33.03;21.17;;;;;;;18.46;83.65;101989.16;5078590;28;20056;-60
2021/08/13 07:56:38;;;;;;;30.92;19.23;;;;;;;18.57;82.92;102006.00;5078026;28;20067;-60
2021/08/13 07:59:03;;;;;;;28.85;16.50;;;;;;;18.63;83.27;102002.38;5080551;28;20100;-64
2021/08/13 08:01:28;;;;;;;28.30;14.63;;;;;;;18.73;82.58;101993.31;5077291;28;20039;-61
2021/08/13 08:03:54;;;;;;;30.27;18.92;;;;;;;18.82;79.40;101993.19;5080435;28;20028;-61
2021/08/13 08:06:19;;;;;;;28.17;14.25;;;;;;;18.78;78.70;102002.16;5078717;28;20520;-60
2021/08/13 08:08:44;;;;;;;28.52;12.55;;;;;;;18.89;80.46;102012.81;5080684;28;20021;-62
2021/08/13 08:11:10;;;;;;;26.02;11.30;;;;;;;19.03;78.53;102028.69;5073989;28;20375;-60
2021/08/13 08:13:35;;;;;;;25.15;11.02;;;;;;;19.26;76.95;102040.94;5073703;28;20095;-61
2021/08/13 08:16:03;;;;;;;27.70;12.10;;;;;;;19.30;76.77;102026.59;5074231;28;20028;-60
2021/08/13 08:18:31;;;;;;;26.92;12.40;;;;;;;19.26;76.18;102030.22;5071727;28;20543;-63
2021/08/13 08:20:57;;;;;;;25.92;12.25;;;;;;;19.35;75.87;102035.44;5074812;28;20035;-64
2021/08/13 08:23:22;;;;;;;27.95;12.23;;;;;;;19.78;72.82;102024.16;5073580;28;20048;-61
2021/08/13 08:25:48;;;;;;;24.00;11.68;;;;;;;20.15;70.30;102034.31;5073388;28;20532;-61
2021/08/13 08:28:13;;;;;;;25.30;11.55;;;;;;;20.55;70.90;102020.13;5073678;28;20055;-64
2021/08/13 08:30:38;;;;;;;26.27;11.38;;;;;;;20.85;68.48;102019.59;5073731;28;20024;-61
2021/08/13 08:33:04;;;;;;;25.15;11.73;;;;;;;21.07;68.80;102026.31;5073229;28;20085;-65
2021/08/13 08:35:29;;;;;;;25.77;11.55;;;;;;;20.98;67.25;102036.38;5073708;28;20032;-67
2021/08/13 08:37:57;;;;;;;25.08;11.40;;;;;;;20.97;67.42;102034.59;5073733;28;20103;-65
2021/08/13 08:40:35;;;;;;;24.85;10.77;;;;;;;20.95;68.64;102025.69;5073588;28;20426;-65
2021/08/13 08:43:05;;;;;;;24.95;11.85;;;;;;;20.98;66.86;102025.63;5073902;28;20021;-66
2021/08/13 08:45:33;;;;;;;25.92;11.77;;;;;;;20.86;65.72;102021.38;5073962;28;20028;-66
2021/08/13 08:48:08;;;;;;;26.20;11.55;;;;;;;20.53;67.78;102026.44;5073769;28;20029;-66
2021/08/13 08:50:36;;;;;;;24.80;11.90;;;;;;;20.58;68.44;102026.38;5073683;28;20021;-66
2021/08/13 08:53:07;;;;;;;24.30;11.25;;;;;;;20.80;66.84;102021.50;5073496;28;20028;-65
2021/08/13 08:55:33;;;;;;;28.70;12.90;;;;;;;21.03;67.83;102030.00;5071201;28;21092;-68
2021/08/13 08:57:59;;;;;;;25.42;11.80;;;;;;;21.56;65.22;102029.75;5073259;28;20077;-66
2021/08/13 09:00:24;;;;;;;25.98;11.82;;;;;;;21.89;64.53;102027.19;5071801;28;20029;-67
2021/08/13 09:02:50;;;;;;;24.60;11.40;;;;;;;21.98;63.43;102025.22;5071507;28;20536;-68
2021/08/13 09:05:16;;;;;;;25.15;12.13;;;;;;;21.76;64.03;102033.81;5069780;28;20103;-67
2021/08/13 09:07:42;;;;;;;26.38;11.98;;;;;;;21.61;62.11;102036.84;5073420;28;20470;-66
2021/08/13 09:10:11;;;;;;;25.38;11.45;;;;;;;21.25;64.25;102041.16;5071079;28;20066;-67
2021/08/13 09:12:37;;;;;;;25.48;11.93;;;;;;;21.31;62.91;102034.78;5073485;28;20020;-66
2021/08/13 09:15:03;;;;;;;25.58;11.40;;;;;;;21.57;61.70;102036.91;5070213;28;20498;-65
2021/08/13 09:17:30;;;;;;;28.33;11.88;;;;;;;21.49;62.72;102037.97;5073572;28;20025;-67
2021/08/13 09:19:56;;;;;;;25.50;11.32;;;;;;;21.81;63.38;102044.44;5075821;28;20542;-66
2021/08/13 09:22:22;;;;;;;24.88;10.82;;;;;;;22.18;62.20;102055.22;5076337;28;20125;-67
2021/08/13 09:24:50;;;;;;;25.08;10.63;;;;;;;22.57;58.44;102054.22;5075883;28;20051;-65
2021/08/13 09:27:20;;;;;;;23.95;10.75;;;;;;;23.46;55.12;102065.19;5073657;28;20472;-67
2021/08/13 09:30:15;;;;;;;24.60;10.82;;;;;;;24.08;54.63;102076.75;5078231;28;20027;-67
2021/08/13 09:32:43;;;;;;;24.90;10.27;;;;;;;23.95;51.73;102078.97;5075053;28;20024;-65
2021/08/13 09:35:09;;;;;;;22.45;9.10;;;;;;;23.73;52.03;102076.06;5075604;28;20032;-68
2021/08/13 09:37:36;;;;;;;25.92;10.63;;;;;;;23.36;52.87;102068.19;5075560;28;20040;-66
2021/08/13 09:40:02;;;;;;;24.15;10.63;;;;;;;22.83;54.01;102066.97;5074708;28;20016;-67
2021/08/13 09:42:38;;;;;;;25.02;9.85;;;;;;;22.68;53.98;102087.16;5073118;28;20075;-66
2021/08/13 09:45:09;;;;;;;24.17;9.77;;;;;;;22.49;53.34;102081.38;5076886;28;20040;-65
2021/08/13 09:47:52;;;;;;;24.95;10.55;;;;;;;22.77;53.98;102080.63;5075755;28;20043;-66
2021/08/13 09:50:32;;;;;;;23.52;9.90;;;;;;;22.99;53.80;102089.00;5074048;28;20032;-65
2021/08/13 09:53:11;;;;;;;22.35;8.82;;;;;;;24.13;49.94;102080.22;5076683;28;20466;-65
2021/08/13 09:55:37;;;;;;;23.40;8.30;;;;;;;24.36;46.76;102057.81;5076347;28;20147;-65
2021/08/13 09:58:03;;;;;;;23.73;8.93;;;;;;;24.41;45.89;102060.34;5076176;28;20124;-65
2021/08/13 10:00:28;;;;;;;22.73;8.35;;;;;;;23.80;45.77;102065.97;5079145;28;20035;-66
2021/08/13 10:03:05;;;;;;;22.30;8.65;;;;;;;24.00;46.99;102084.25;5077919;28;20024;-66
2021/08/13 10:05:31;;;;;;;22.25;8.02;;;;;;;23.99;45.53;102077.94;5075647;28;20064;-66
2021/08/13 10:08:00;;;;;;;21.95;8.45;;;;;;;24.32;43.05;102066.97;5075808;28;20059;-63
2021/08/13 10:10:33;;;;;;;22.45;7.72;;;;;;;24.70;43.08;102064.75;5068251;28;20043;-65
2021/08/13 10:12:59;;;;;;;22.05;8.57;;;;;;;24.39;42.41;102077.56;5068814;28;20028;-64
2021/08/13 10:15:31;;;;;;;23.08;8.48;;;;;;;23.69;44.97;102074.38;5072034;28;20036;-61
2021/08/13 10:17:58;;;;;;;22.40;8.52;;;;;;;23.87;45.03;102064.88;5068997;28;20024;-60
2021/08/13 10:20:25;;;;;;;22.52;8.15;;;;;;;23.39;44.95;102074.41;5073178;28;20025;-61
2021/08/13 10:22:51;;;;;;;22.70;8.70;;;;;;;23.80;43.78;102069.53;5076954;28;20040;-59
2021/08/13 10:25:17;;;;;;;21.88;7.82;;;;;;;25.47;42.75;102066.44;5069084;28;20039;-61
2021/08/13 10:27:43;;;;;;;22.10;8.65;;;;;;;25.93;40.32;102061.00;5078279;28;20483;-61
2021/08/13 10:30:09;;;;;;;23.55;8.82;;;;;;;25.66;41.98;102065.69;5078824;28;20040;-60
2021/08/13 10:32:36;;;;;;;23.45;9.68;;;;;;;25.77;42.53;102062.56;5078497;28;20029;-61
2021/08/13 10:35:02;;;;;;;23.27;8.50;;;;;;;25.58;40.42;102066.00;5081915;28;20119;-62
2021/08/13 10:37:28;;;;;;;22.60;8.00;;;;;;;25.90;40.84;102071.97;5077729;28;20155;-60
2021/08/13 10:39:55;;;;;;;22.40;8.32;;;;;;;27.00;39.41;102080.84;5076586;28;20059;-62
2021/08/13 10:42:23;;;;;;;23.02;9.15;;;;;;;26.84;39.64;102080.66;5079721;28;20054;-62
2021/08/13 10:44:58;;;;;;;25.13;8.77;;;;;;;26.55;38.97;102070.16;5076327;28;20418;-61
2021/08/13 10:47:34;;;;;;;22.95;9.02;;;;;;;26.83;38.16;102074.38;5077858;28;20079;-66
2021/08/13 10:50:01;;;;;;;22.40;8.43;;;;;;;27.88;36.73;102079.47;5076973;28;20094;-64
2021/08/13 10:52:39;;;;;;;23.77;9.57;;;;;;;27.87;36.94;102081.28;5075272;28;20491;-61
2021/08/13 10:55:07;;;;;;;23.77;9.60;;;;;;;27.74;37.64;102083.75;5070659;28;20086;-66
2021/08/13 10:58:05;;;;;;;24.17;10.52;;;;;;;27.88;39.06;102074.91;5062526;28;20485;-64
2021/08/13 11:00:57;;;;;;;24.20;10.10;;;;;;;28.56;36.92;102081.47;5008199;28;20038;-66
2021/08/13 11:03:23;;;;;;;25.10;9.65;;;;;;;28.41;38.08;102089.50;5009060;28;20374;-61
2021/08/13 11:05:58;;;;;;;24.67;10.93;;;;;;;27.27;37.92;102079.56;5008083;28;20072;-69
2021/08/13 11:08:45;;;;;;;25.42;10.90;;;;;;;26.86;41.22;102078.78;5002537;28;20026;-65